Time;durP1;ratioP1;P1;durP2;ratioP2;P2;SDS_P1;SDS_P2;PMS_P1;PMS_P2;Temp;Humidity;BMP_temperature;BMP_pressure;BME280_temperature;BME280_humidity;BME280_pressure;Samples;Min_cycle;Max_cycle;Signal;HPM_P1;HPM_P2
2021/05/11 00:01:30;;;;;;;5.95;1.33;;;;;;;10.80;68.85;99618.63;5015189;28;20034;-76
2021/05/11 00:03:55;;;;;;;6.72;1.33;;;;;;;10.77;68.94;99624.81;5028572;28;20033;-76
2021/05/11 00:06:21;;;;;;;5.72;1.15;;;;;;;10.75;69.31;99618.75;5038259;28;20041;-76
2021/05/11 00:08:47;;;;;;;6.28;1.70;;;;;;;10.73;69.32;99618.28;5038944;28;20396;-75
2021/05/11 00:11:12;;;;;;;5.28;1.30;;;;;;;10.73;69.02;99613.53;5017703;28;20030;-75
2021/05/11 00:13:38;;;;;;;8.00;1.38;;;;;;;10.69;69.27;99617.25;5012839;28;20398;-76
2021/05/11 00:16:04;;;;;;;7.20;1.20;;;;;;;10.69;69.19;99615.28;5015045;28;20030;-75
2021/05/11 00:18:30;;;;;;;7.50;1.30;;;;;;;10.64;69.20;99617.38;5010832;28;20037;-76
2021/05/11 00:20:55;;;;;;;3.70;1.17;;;;;;;10.62;69.57;99606.59;5021387;28;20048;-75
2021/05/11 00:23:21;;;;;;;6.53;1.20;;;;;;;10.58;69.29;99607.53;5051500;28;20037;-76
2021/05/11 00:25:46;;;;;;;6.32;1.42;;;;;;;10.59;69.70;99604.47;5035777;28;20021;-76
2021/05/11 00:28:12;;;;;;;9.02;1.42;;;;;;;10.60;69.27;99608.06;5013576;28;20394;-76
2021/05/11 00:30:37;;;;;;;6.53;1.40;;;;;;;10.58;69.53;99604.75;4995541;28;20026;-76
2021/05/11 00:33:03;;;;;;;6.50;1.25;;;;;;;10.57;69.36;99605.91;5002628;28;20029;-75
2021/05/11 00:35:28;;;;;;;9.65;1.45;;;;;;;10.56;69.99;99604.25;5002902;28;20034;-76
2021/05/11 00:37:54;;;;;;;5.78;1.38;;;;;;;10.55;69.81;99606.22;5032951;28;20041;-76
2021/05/11 00:40:19;;;;;;;7.70;1.63;;;;;;;10.56;69.74;99601.47;4993194;28;20048;-76
2021/05/11 00:42:45;;;;;;;7.65;1.27;;;;;;;10.53;69.83;99597.41;5041431;28;20037;-75
2021/05/11 00:45:11;;;;;;;7.13;1.20;;;;;;;10.51;69.79;99597.72;5022896;28;20037;-76
2021/05/11 00:47:36;;;;;;;7.30;1.27;;;;;;;10.53;70.04;99589.06;5039239;28;20021;-76
2021/05/11 00:50:02;;;;;;;6.28;1.42;;;;;;;10.49;70.10;99591.63;5006073;28;20410;-76
2021/05/11 00:52:28;;;;;;;8.07;1.35;;;;;;;10.50;70.29;99601.63;5008725;28;20037;-77
2021/05/11 00:54:53;;;;;;;7.40;1.50;;;;;;;10.50;70.30;99592.44;5057215;28;20024;-75
2021/05/11 00:57:19;;;;;;;6.18;1.20;;;;;;;10.48;70.18;99591.97;5012012;28;20646;-75
2021/05/11 00:59:45;;;;;;;8.25;1.35;;;;;;;10.49;71.11;99591.63;5022573;28;20394;-75
2021/05/11 01:02:10;;;;;;;7.03;1.45;;;;;;;10.53;70.42;99594.63;5031669;28;20036;-76
2021/05/11 01:04:36;;;;;;;7.22;1.20;;;;;;;10.51;70.71;99602.44;5026259;28;20037;-76
2021/05/11 01:07:02;;;;;;;8.45;1.35;;;;;;;10.51;70.51;99602.44;5051730;28;20112;-76
2021/05/11 01:09:27;;;;;;;6.93;1.40;;;;;;;10.52;70.94;99601.28;4993011;28;20360;-76
2021/05/11 01:11:56;;;;;;;7.90;1.27;;;;;;;10.49;70.55;99590.81;5034953;28;20025;-77
2021/05/11 01:14:22;;;;;;;4.53;0.93;;;;;;;10.52;70.51;99585.44;5038297;28;20037;-75
2021/05/11 01:16:54;;;;;;;8.20;1.50;;;;;;;10.50;70.50;99584.13;5022240;28;20025;-76
2021/05/11 01:19:28;;;;;;;9.88;1.40;;;;;;;10.49;70.95;99588.88;5004971;28;20077;-76
2021/05/11 01:22:21;;;;;;;7.22;1.20;;;;;;;10.51;71.03;99597.72;5035555;28;20093;-76
2021/05/11 01:24:50;;;;;;;6.47;1.35;;;;;;;10.51;70.63;99594.13;5020252;28;20103;-76
2021/05/11 01:32:40;;;;;;;5.75;1.20;;;;;;;10.53;71.02;99589.06;5054611;28;20032;-75
2021/05/11 01:48:38;;;;;;;8.48;1.15;;;;;;;10.59;71.37;99584.22;5022240;28;20036;-76
2021/05/11 02:10:20;;;;;;;9.77;1.27;;;;;;;10.61;71.78;99568.84;5015012;28;20032;-76
2021/05/11 02:23:58;;;;;;;6.15;0.95;;;;;;;10.51;72.42;99589.38;4962969;28;20129;-76
2021/05/11 02:26:23;;;;;;;5.40;1.05;;;;;;;10.49;72.87;99574.97;4958770;28;20091;-76
2021/05/11 02:28:49;;;;;;;7.75;1.52;;;;;;;10.47;72.20;99566.19;5005016;28;20029;-76
2021/05/11 02:31:14;;;;;;;8.85;1.67;;;;;;;10.46;72.12;99572.03;5028547;28;20505;-76
2021/05/11 02:33:40;;;;;;;4.80;0.95;;;;;;;10.43;71.85;99581.81;5048894;28;20120;-76
2021/05/11 02:36:06;;;;;;;6.90;1.08;;;;;;;10.44;72.13;99577.06;5037184;28;20082;-76
2021/05/11 02:38:31;;;;;;;5.13;1.00;;;;;;;10.44;72.05;99568.75;5052398;28;20049;-76
2021/05/11 02:40:57;;;;;;;5.38;1.08;;;;;;;10.44;72.04;99577.88;5018109;28;20090;-76
2021/05/11 02:43:33;;;;;;;6.85;1.48;;;;;;;10.40;72.37;99571.34;5005564;28;20380;-76
2021/05/11 02:45:58;;;;;;;4.90;1.35;;;;;;;10.38;72.46;99562.50;5020474;28;20037;-76
2021/05/11 02:48:24;;;;;;;8.35;1.38;;;;;;;10.34;72.45;99564.28;5010254;28;20534;-76
2021/05/11 02:50:49;;;;;;;3.38;0.80;;;;;;;10.32;71.99;99560.19;5047652;28;20107;-76
2021/05/11 02:53:15;;;;;;;7.53;1.25;;;;;;;10.32;72.09;99563.78;5000350;28;20022;-76
2021/05/11 02:55:40;;;;;;;4.22;1.15;;;;;;;10.33;72.48;99559.84;5018450;28;20025;-76
2021/05/11 02:58:06;;;;;;;5.85;1.20;;;;;;;10.27;72.69;99563.88;5033872;28;20025;-76
2021/05/11 03:00:31;;;;;;;5.90;1.15;;;;;;;10.24;72.35;99558.94;5033868;28;20041;-75
2021/05/11 03:02:57;;;;;;;5.32;1.40;;;;;;;10.22;72.17;99561.19;5020075;28;20041;-76
2021/05/11 03:05:23;;;;;;;6.00;1.35;;;;;;;10.19;72.54;99559.06;5038318;28;20025;-76
2021/05/11 03:07:48;;;;;;;3.85;1.00;;;;;;;10.18;72.50;99560.19;4997277;28;20431;-76
2021/05/11 03:10:14;;;;;;;7.00;1.02;;;;;;;10.16;72.81;99576.34;5020480;28;20381;-76
2021/05/11 03:12:40;;;;;;;6.30;1.13;;;;;;;10.16;72.79;99573.56;5038785;28;20087;-76
2021/05/11 03:15:06;;;;;;;6.72;1.40;;;;;;;10.12;73.44;99573.38;4983755;28;20028;-76
2021/05/11 03:17:32;;;;;;;4.70;1.08;;;;;;;10.11;73.44;99565.34;5001662;28;20057;-76
2021/05/11 03:19:57;;;;;;;4.90;1.38;;;;;;;10.11;73.69;99570.91;5013513;28;20024;-77
2021/05/11 03:22:23;;;;;;;6.03;1.15;;;;;;;10.09;73.41;99567.66;5036127;28;20481;-76
2021/05/11 03:24:48;;;;;;;6.50;1.10;;;;;;;10.10;73.20;99569.28;5047952;28;20029;-76
2021/05/11 03:27:15;;;;;;;4.80;1.30;;;;;;;10.13;73.18;99569.47;5011172;28;20025;-75
2021/05/11 03:29:41;;;;;;;6.50;1.38;;;;;;;10.10;73.16;99577.59;4989965;28;20078;-76
2021/05/11 03:32:07;;;;;;;6.05;1.83;;;;;;;10.07;73.28;99574.31;4988674;28;20025;-76
2021/05/11 03:34:32;;;;;;;3.78;1.23;;;;;;;10.07;73.29;99567.94;5020583;28;20044;-76
2021/05/11 03:36:58;;;;;;;7.10;1.30;;;;;;;10.07;73.47;99577.09;5021046;28;20037;-76
2021/05/11 03:39:24;;;;;;;5.40;1.40;;;;;;;10.05;73.29;99582.13;5018639;28;20033;-76
2021/05/11 03:42:02;;;;;;;4.90;1.00;;;;;;;10.07;73.37;99576.28;5005248;28;20421;-76
2021/05/11 03:44:31;;;;;;;5.38;1.50;;;;;;;10.03;73.02;99581.63;5024384;28;20532;-76
2021/05/11 03:46:56;;;;;;;3.33;1.20;;;;;;;10.01;73.12;99583.88;5016510;28;20083;-75
2021/05/11 03:49:22;;;;;;;4.72;1.30;;;;;;;10.02;72.99;99593.03;4990392;28;20033;-76
2021/05/11 03:51:48;;;;;;;3.75;0.90;;;;;;;9.97;73.10;99591.22;4966095;28;20025;-76
2021/05/11 03:54:13;;;;;;;4.72;0.98;;;;;;;9.96;73.08;99592.31;5037510;28;20466;-76
2021/05/11 03:56:39;;;;;;;2.88;1.08;;;;;;;9.92;73.21;99591.31;5020923;28;20397;-76
2021/05/11 03:59:05;;;;;;;5.88;1.23;;;;;;;9.91;73.25;99586.88;5019095;28;20540;-76
2021/05/11 04:01:31;;;;;;;4.70;1.20;;;;;;;9.88;73.40;99587.50;5010969;28;20052;-75
2021/05/11 04:03:57;;;;;;;5.03;1.23;;;;;;;9.87;73.10;99585.88;5027770;28;20044;-75
2021/05/11 04:06:22;;;;;;;5.28;1.40;;;;;;;9.87;73.24;99585.88;5001400;28;20030;-76
2021/05/11 04:08:53;;;;;;;6.40;1.45;;;;;;;9.86;72.98;99592.53;5034822;28;20583;-75
2021/05/11 04:17:03;;;;;;;6.82;1.30;;;;;;;9.74;73.01;99590.31;5016995;28;20034;-76
2021/05/11 04:19:29;;;;;;;5.22;1.30;;;;;;;9.73;73.02;99585.91;5020395;28;20029;-76
2021/05/11 04:21:55;;;;;;;4.63;1.15;;;;;;;9.70;73.08;99592.09;5051166;28;20022;-76
2021/05/11 04:24:23;;;;;;;3.05;1.20;;;;;;;9.60;73.07;99598.66;5002309;28;20425;-75
2021/05/11 04:26:49;;;;;;;5.38;1.20;;;;;;;9.59;73.14;99602.56;5021075;28;20044;-76
2021/05/11 04:29:14;;;;;;;3.20;1.00;;;;;;;9.54;73.06;99599.09;5014753;28;20025;-76
2021/05/11 04:31:40;;;;;;;3.85;1.00;;;;;;;9.50;73.14;99598.88;4984712;28;20033;-76
2021/05/11 04:34:05;;;;;;;4.05;1.05;;;;;;;9.51;73.20;99603.28;5054999;28;20596;-76
2021/05/11 04:36:31;;;;;;;4.95;1.27;;;;;;;9.48;72.88;99598.38;5035901;28;20060;-76
2021/05/11 04:38:56;;;;;;;3.50;1.13;;;;;;;9.45;73.26;99598.19;5026537;28;20029;-75
2021/05/11 04:41:22;;;;;;;3.92;1.10;;;;;;;9.39;73.12;99598.28;5032993;28;20095;-76
2021/05/11 04:43:49;;;;;;;6.10;1.40;;;;;;;9.38;73.20;99602.16;5022142;28;20525;-75
2021/05/11 04:48:45;;;;;;;2.33;0.93;;;;;;;9.32;73.20;99602.56;5038384;28;20043;-76
2021/05/11 04:51:11;;;;;;;4.78;1.13;;;;;;;9.32;73.07;99605.34;5019636;28;20033;-76
2021/05/11 04:53:36;;;;;;;3.13;1.17;;;;;;;9.26;73.11;99609.34;5015194;28;20029;-76
2021/05/11 04:56:02;;;;;;;5.10;1.05;;;;;;;9.18;73.41;99614.47;4977793;28;20029;-76
2021/05/11 04:58:27;;;;;;;7.60;1.17;;;;;;;9.16;73.35;99616.75;5039453;28;20036;-76
2021/05/11 05:01:00;;;;;;;6.47;1.63;;;;;;;9.09;73.59;99613.53;5056178;28;20485;-76
2021/05/11 05:03:26;;;;;;;;;;;;;;;9.07;73.50;99617.75;5040358;28;20025;-76
2021/05/11 05:05:52;;;;;;;4.95;1.10;;;;;;;9.06;73.64;99621.66;5040743;28;19916;-75
2021/05/11 05:08:17;;;;;;;7.93;1.35;;;;;;;9.06;73.53;99622.47;5006345;28;20031;-76
2021/05/11 05:10:43;;;;;;;3.17;1.00;;;;;;;9.04;73.52;99618.34;5051535;28;20036;-77
2021/05/11 05:13:08;;;;;;;3.08;0.80;;;;;;;9.16;74.36;99616.75;5042036;28;20029;-77
2021/05/11 05:15:34;;;;;;;3.90;1.30;;;;;;;9.32;75.02;99627.50;5026283;28;20048;-76
2021/05/11 05:18:00;;;;;;;4.75;1.10;;;;;;;9.32;75.40;99628.34;5040306;28;20024;-76
2021/05/11 05:20:25;;;;;;;4.57;1.15;;;;;;;9.41;76.44;99631.19;5042954;28;20051;-76
2021/05/11 05:22:50;;;;;;;5.25;1.42;;;;;;;9.45;76.22;99640.56;5050621;28;20056;-76
2021/05/11 05:25:23;;;;;;;4.40;1.30;;;;;;;9.53;76.49;99642.63;5040793;28;20381;-77
2021/05/11 05:27:56;;;;;;;3.42;1.30;;;;;;;9.50;76.16;99639.63;5022661;28;20534;-76
2021/05/11 05:30:22;;;;;;;3.45;1.08;;;;;;;9.52;76.65;99646.50;5036943;28;20111;-78
2021/05/11 05:32:47;;;;;;;5.25;1.27;;;;;;;9.61;76.88;99644.66;5008369;28;20025;-76
2021/05/11 05:35:13;;;;;;;4.90;1.30;;;;;;;9.60;76.22;99659.63;5010549;28;20127;-76
2021/05/11 05:37:38;;;;;;;5.95;1.40;;;;;;;9.62;76.32;99657.38;4988437;28;20045;-76
2021/05/11 05:40:07;;;;;;;3.15;1.20;;;;;;;9.71;76.64;99656.66;4983807;28;20033;-76
2021/05/11 05:42:32;;;;;;;4.50;1.15;;;;;;;9.78;76.66;99657.91;5008832;28;20694;-75
2021/05/11 05:44:58;;;;;;;5.35;1.35;;;;;;;9.80;76.78;99661.16;5003961;28;20033;-77
2021/05/11 05:47:23;;;;;;;5.88;1.27;;;;;;;9.82;76.54;99669.19;4987362;28;20033;-76
2021/05/11 05:49:53;;;;;;;4.07;1.25;;;;;;;9.88;76.51;99672.69;5001303;28;20072;-76
2021/05/11 05:52:23;;;;;;;3.80;0.98;;;;;;;9.95;76.71;99673.91;5005812;28;20032;-76
2021/05/11 05:54:49;;;;;;;3.30;1.00;;;;;;;10.03;76.38;99677.91;5003391;28;20034;-76
2021/05/11 05:57:14;;;;;;;2.22;0.95;;;;;;;10.12;76.81;99678.00;4995416;28;20375;-76
2021/05/11 05:59:41;;;;;;;2.75;1.05;;;;;;;10.17;76.67;99683.41;5030872;28;20041;-76
2021/05/11 06:02:10;;;;;;;3.22;0.80;;;;;;;10.22;76.99;99686.06;5021863;28;20021;-76
2021/05/11 06:04:36;;;;;;;4.15;1.23;;;;;;;10.33;76.70;99693.06;4990500;28;20029;-76
2021/05/11 06:07:01;;;;;;;4.47;1.00;;;;;;;10.41;77.01;99694.28;5015809;28;20048;-75
2021/05/11 06:09:27;;;;;;;4.53;1.38;;;;;;;10.45;77.28;99696.13;5004708;28;20036;-76
2021/05/11 06:11:59;;;;;;;3.10;1.08;;;;;;;10.58;76.61;99699.16;4992377;28;20466;-76
2021/05/11 06:17:18;;;;;;;6.82;1.30;;;;;;;10.63;76.91;99697.09;5026146;28;19920;-76
2021/05/11 06:19:48;;;;;;;5.15;1.30;;;;;;;10.74;76.54;99704.03;5008322;28;20091;-77
2021/05/11 06:22:14;;;;;;;5.95;1.50;;;;;;;10.82;76.20;99712.75;4984239;28;20033;-76
2021/05/11 06:24:40;;;;;;;3.65;1.05;;;;;;;10.86;76.80;99709.03;5022767;28;20034;-76
2021/05/11 06:27:06;;;;;;;5.95;1.52;;;;;;;10.90;76.61;99707.28;4995733;28;20471;-75
2021/05/11 06:29:34;;;;;;;6.07;1.13;;;;;;;10.92;77.05;99702.22;5011950;28;20438;-76
2021/05/11 06:32:00;;;;;;;5.13;1.30;;;;;;;10.98;76.10;99710.41;5025567;28;20029;-76
2021/05/11 06:34:25;;;;;;;3.92;1.20;;;;;;;11.02;76.14;99709.47;4992420;28;20041;-73
2021/05/11 06:36:51;;;;;;;4.13;1.20;;;;;;;11.06;76.48;99709.66;5020684;28;20041;-74
2021/05/11 06:39:17;;;;;;;5.18;1.48;;;;;;;11.09;75.96;99709.84;4985494;28;20036;-74
2021/05/11 06:41:49;;;;;;;3.53;1.33;;;;;;;11.12;75.38;99717.56;5026082;28;20057;-74
2021/05/11 06:44:25;;;;;;;7.45;1.50;;;;;;;11.18;76.53;99729.34;5046206;28;20037;-74
2021/05/11 06:54:49;;;;;;;6.05;1.55;;;;;;;11.36;77.81;99744.19;5035727;28;20052;-75
2021/05/11 06:57:15;;;;;;;5.60;1.20;;;;;;;11.40;78.06;99747.97;5018292;28;20033;-74
2021/05/11 06:59:40;;;;;;;6.32;1.63;;;;;;;11.45;79.99;99749.78;5025107;28;20028;-74
2021/05/11 07:02:06;;;;;;;5.80;1.80;;;;;;;11.48;80.03;99751.91;5001850;28;20052;-74
2021/05/11 07:04:31;;;;;;;5.65;1.58;;;;;;;11.56;77.61;99762.28;5009038;28;20037;-74
2021/05/11 07:06:58;;;;;;;6.35;1.60;;;;;;;11.63;77.39;99757.09;5008848;28;20021;-74
2021/05/11 07:14:30;;;;;;;8.38;1.60;;;;;;;11.95;76.64;99763.47;5027393;28;20055;-74
2021/05/11 07:16:56;;;;;;;9.55;2.08;;;;;;;12.04;76.59;99761.56;5054237;28;20017;-74
2021/05/11 07:19:21;;;;;;;8.75;1.55;;;;;;;12.12;76.20;99763.56;5034804;28;20464;-74
2021/05/11 07:21:47;;;;;;;5.35;1.30;;;;;;;12.23;75.83;99764.91;4989264;28;20021;-74
2021/05/11 07:24:12;;;;;;;4.53;1.67;;;;;;;12.35;76.29;99764.25;5053108;28;20044;-75
2021/05/11 07:26:59;;;;;;;6.45;1.45;;;;;;;12.48;75.55;99756.91;5017185;28;20516;-75
2021/05/11 07:32:07;;;;;;;8.27;1.85;;;;;;;12.83;74.29;99765.31;5019638;28;20064;-74
2021/05/11 07:34:34;;;;;;;7.80;1.70;;;;;;;13.00;73.83;99765.31;5025767;28;20029;-75
2021/05/11 07:36:59;;;;;;;10.55;1.63;;;;;;;13.18;73.14;99769.72;5020499;28;20105;-75
2021/05/11 07:39:25;;;;;;;7.70;2.00;;;;;;;13.43;72.52;99764.47;5031862;28;20457;-74
2021/05/11 07:41:50;;;;;;;6.13;1.40;;;;;;;13.67;71.99;99774.25;5003255;28;20359;-75
2021/05/11 07:44:16;;;;;;;7.55;1.35;;;;;;;13.91;71.71;99776.50;5012959;28;20021;-75
2021/05/11 08:28:24;;;;;;;9.07;2.03;;;;;;;17.35;62.31;99783.91;5061112;28;20056;-78
2021/05/11 08:30:50;;;;;;;12.15;2.55;;;;;;;17.45;62.25;99783.41;5064317;28;20029;-76
2021/05/11 08:33:15;;;;;;;10.55;2.33;;;;;;;17.49;61.63;99778.69;5030783;28;20547;-76
2021/05/11 08:35:41;;;;;;;8.80;1.80;;;;;;;17.54;61.53;99775.63;5064378;28;20030;-76
2021/05/11 08:38:06;;;;;;;7.65;2.00;;;;;;;17.58;61.16;99770.94;5046673;28;20045;-76
2021/05/11 08:40:33;;;;;;;9.30;1.85;;;;;;;17.60;60.54;99774.19;5054959;28;20104;-76
2021/05/11 08:43:02;;;;;;;10.90;1.63;;;;;;;17.60;60.49;99774.19;5053448;28;20025;-76
2021/05/11 08:45:29;;;;;;;7.38;2.35;;;;;;;17.64;60.63;99775.13;5039212;28;20574;-76
2021/05/11 08:47:55;;;;;;;8.77;1.92;;;;;;;17.69;60.56;99767.59;5041443;28;20064;-76
2021/05/11 08:50:28;;;;;;;10.07;2.28;;;;;;;17.73;60.06;99766.53;5051505;28;20037;-76
2021/05/11 09:00:00;;;;;;;8.55;1.85;;;;;;;17.81;58.99;99768.38;5047937;28;20048;-75
2021/05/11 09:27:10;;;;;;;6.05;1.20;;;;;;;19.21;54.10;99782.94;5051357;28;20033;-75
2021/05/11 09:45:02;;;;;;;5.28;1.10;;;;;;;19.92;53.29;99782.72;5038711;28;20047;-75
2021/05/11 10:49:35;;;;;;;4.32;0.90;;;;;;;19.40;58.04;99793.41;5017257;28;20091;-76
2021/05/11 10:52:18;;;;;;;5.45;0.93;;;;;;;19.53;57.21;99788.41;5034830;28;20056;-76
2021/05/11 10:54:53;;;;;;;5.70;1.20;;;;;;;19.70;55.66;99785.16;5029439;28;20029;-76
2021/05/11 10:57:49;;;;;;;6.50;1.05;;;;;;;19.83;56.10;99769.69;5033690;28;20036;-76
2021/05/11 11:00:24;;;;;;;5.63;1.45;;;;;;;20.07;57.38;99770.53;5040010;28;20167;-76
2021/05/11 11:03:27;;;;;;;7.60;1.20;;;;;;;20.34;55.43;99759.28;5025306;28;20033;-76
2021/05/11 11:05:53;;;;;;;4.70;1.00;;;;;;;20.60;53.13;99767.78;5029751;28;20096;-77
2021/05/11 11:08:39;;;;;;;3.72;1.00;;;;;;;20.80;52.50;99760.00;5031274;28;20034;-77
2021/05/11 11:11:12;;;;;;;4.45;1.10;;;;;;;21.03;51.53;99768.38;5022544;28;20034;-77
2021/05/11 11:13:42;;;;;;;4.63;1.13;;;;;;;21.19;51.36;99766.19;5030574;28;20057;-77
2021/05/11 11:16:08;;;;;;;6.25;0.88;;;;;;;21.36;50.76;99759.13;5035373;28;20029;-76
2021/05/11 11:18:34;;;;;;;6.68;1.42;;;;;;;21.54;49.73;99764.22;5047600;28;20029;-76
2021/05/11 11:23:45;;;;;;;5.65;1.00;;;;;;;21.86;46.37;99762.53;5020120;28;20037;-76
2021/05/11 11:26:13;;;;;;;4.13;0.90;;;;;;;22.06;46.32;99774.44;5032921;28;20026;-76
2021/05/11 11:28:39;;;;;;;3.55;0.80;;;;;;;22.22;44.87;99747.94;5020715;28;20033;-75
2021/05/11 11:31:28;;;;;;;4.15;1.00;;;;;;;22.27;44.58;99758.88;5036636;28;20084;-76
2021/05/11 11:34:18;;;;;;;6.35;1.13;;;;;;;22.43;44.66;99764.28;5017384;28;20033;-76
2021/05/11 11:36:48;;;;;;;6.00;1.00;;;;;;;22.52;44.75;99761.91;5050286;28;20056;-76
2021/05/11 11:39:18;;;;;;;4.00;1.02;;;;;;;22.66;44.04;99761.19;5065811;28;20025;-76
2021/05/11 11:41:45;;;;;;;6.80;1.20;;;;;;;22.79;43.84;99761.66;5037839;28;20040;-75
2021/05/11 11:44:14;;;;;;;5.00;0.93;;;;;;;22.90;43.74;99777.53;5068881;28;20104;-76
2021/05/11 11:46:40;;;;;;;5.30;1.10;;;;;;;23.05;43.09;99766.31;5044097;28;20052;-76
2021/05/11 11:49:10;;;;;;;6.93;1.30;;;;;;;23.10;41.86;99758.25;5031674;28;20037;-77
2021/05/11 11:51:37;;;;;;;3.65;0.80;;;;;;;23.13;41.25;99756.66;5035647;28;20024;-77
2021/05/11 11:54:12;;;;;;;6.15;1.20;;;;;;;23.00;41.92;99764.66;5057723;28;20033;-77
2021/05/11 11:59:14;;;;;;;9.43;1.45;;;;;;;23.06;41.71;99763.06;5050292;28;20500;-76
2021/05/11 12:01:39;;;;;;;5.30;1.05;;;;;;;23.00;41.84;99763.84;5054281;28;20036;-77
2021/05/11 12:04:05;;;;;;;4.50;0.88;;;;;;;22.89;42.73;99773.06;5062877;28;20393;-77
2021/05/11 12:06:30;;;;;;;6.25;1.15;;;;;;;22.86;42.51;99771.03;5052615;28;20453;-76
2021/05/11 12:08:56;;;;;;;4.40;0.93;;;;;;;22.84;42.58;99770.59;5056840;28;20032;-75
2021/05/11 12:11:21;;;;;;;3.28;0.90;;;;;;;22.74;41.80;99777.03;5050164;28;20516;-76
2021/05/11 12:13:49;;;;;;;6.05;1.33;;;;;;;22.64;42.61;99792.72;5022794;28;20040;-76
2021/05/11 12:16:16;;;;;;;4.25;1.25;;;;;;;22.56;41.97;99787.41;5056336;28;20036;-76
2021/05/11 12:19:07;;;;;;;5.38;0.95;;;;;;;22.36;42.57;99793.31;5026831;28;20030;-76
2021/05/11 12:21:48;;;;;;;5.72;1.42;;;;;;;22.29;42.79;99764.97;5058637;28;20204;-75
2021/05/11 12:24:13;;;;;;;5.78;1.10;;;;;;;22.21;42.35;99798.03;5050802;28;20083;-76
2021/05/11 12:26:44;;;;;;;6.70;1.15;;;;;;;22.18;42.68;99795.19;5038407;28;20037;-76
2021/05/11 12:29:10;;;;;;;6.45;1.10;;;;;;;22.12;42.39;99788.22;5040904;28;20111;-75
2021/05/11 12:31:49;;;;;;;9.68;1.42;;;;;;;22.17;43.40;99790.69;5056390;28;20107;-76
2021/05/11 12:34:22;;;;;;;5.65;1.02;;;;;;;22.16;43.51;99795.53;5054654;28;20028;-77
2021/05/11 12:36:51;;;;;;;4.88;1.00;;;;;;;22.20;43.62;99799.22;5021608;28;20045;-76
2021/05/11 12:39:45;;;;;;;4.03;0.98;;;;;;;22.15;43.45;99804.38;5035394;28;20115;-76
2021/05/11 12:42:20;;;;;;;4.47;1.00;;;;;;;22.28;43.85;99802.94;5008240;28;20024;-76
2021/05/11 12:45:00;;;;;;;3.13;0.73;;;;;;;22.25;43.96;99796.03;5055697;28;20038;-74
2021/05/11 12:47:25;;;;;;;6.05;1.00;;;;;;;22.36;43.74;99815.94;5070061;28;20040;-76
2021/05/11 12:49:55;;;;;;;2.60;0.70;;;;;;;22.32;43.30;99798.13;5036783;28;20037;-75
2021/05/11 12:52:27;;;;;;;4.93;0.70;;;;;;;22.38;43.72;99816.38;5027317;28;20028;-76
2021/05/11 12:54:53;;;;;;;3.58;0.70;;;;;;;22.37;43.25;99817.56;5028370;28;20031;-76
2021/05/11 12:57:35;;;;;;;3.03;0.77;;;;;;;22.39;43.23;99803.03;5033466;28;20037;-76
2021/05/11 13:00:08;;;;;;;3.17;0.70;;;;;;;22.32;43.20;99814.28;5068394;28;20032;-76
2021/05/11 13:03:01;;;;;;;3.47;0.63;;;;;;;22.33;43.46;99822.38;5051706;28;20108;-76
2021/05/11 13:14:46;;;;;;;2.28;0.45;;;;;;;22.18;45.96;99821.44;5046694;28;20029;-76
2021/05/11 13:17:05;;;;;;;3.65;0.45;;;;;;;22.27;46.86;99826.78;5055240;28;20044;-76
2021/05/11 13:25:46;;;;;;;2.88;0.45;;;;;;;22.43;46.77;99818.84;4986578;28;20034;-76
2021/05/11 13:28:09;;;;;;;5.65;1.05;;;;;;;22.29;47.75;99832.84;4991230;28;20109;-75
2021/05/11 13:33:14;;;;;;;3.03;0.65;;;;;;;22.00;47.34;99821.22;4979904;28;20046;-76
2021/05/11 13:35:40;;;;;;;3.55;0.60;;;;;;;22.02;46.71;99823.66;4994475;28;20874;-76
2021/05/11 13:38:06;;;;;;;2.88;0.65;;;;;;;21.93;47.25;99824.00;4967182;28;838383;-76
2021/05/11 13:40:32;;;;;;;2.83;0.70;;;;;;;21.92;47.65;99830.00;4998255;28;20109;-76
2021/05/11 13:42:58;;;;;;;2.97;0.50;;;;;;;21.83;49.82;99833.16;4994735;28;20026;-77
2021/05/11 13:45:24;;;;;;;3.65;0.70;;;;;;;21.73;50.90;99833.84;4981480;28;20046;-76
2021/05/11 13:48:30;;;;;;;2.78;0.50;;;;;;;21.69;52.48;99828.16;4995067;28;20030;-76
2021/05/11 13:53:08;;;;;;;4.85;0.75;;;;;;;21.50;53.12;99837.59;4979103;28;20034;-76
2021/05/11 13:55:48;;;;;;;3.95;0.60;;;;;;;21.37;52.16;99841.91;4980296;28;20041;-75
2021/05/11 14:03:42;;;;;;;3.47;0.60;;;;;;;20.87;52.69;99846.81;5051519;28;20025;-75
2021/05/11 14:06:08;;;;;;;3.55;0.75;;;;;;;20.85;52.24;99838.72;5035086;28;20033;-76
2021/05/11 14:08:34;;;;;;;3.47;0.82;;;;;;;20.90;52.33;99846.03;5053714;28;20083;-75
2021/05/11 14:11:00;;;;;;;4.45;0.60;;;;;;;20.89;51.92;99845.22;5028911;28;20033;-75
2021/05/11 14:13:25;;;;;;;4.75;0.90;;;;;;;20.91;51.04;99853.31;5036928;28;20029;-75
2021/05/11 14:15:51;;;;;;;5.65;0.90;;;;;;;20.89;50.77;99858.50;5045124;28;20041;-75
2021/05/11 14:18:17;;;;;;;4.05;0.85;;;;;;;20.88;50.74;99860.53;5071570;28;20036;-75
2021/05/11 14:20:43;;;;;;;7.05;0.70;;;;;;;20.80;50.91;99867.25;5051549;28;20032;-76
2021/05/11 14:23:09;;;;;;;4.55;0.85;;;;;;;20.80;50.85;99855.16;5025169;28;20029;-75
2021/05/11 14:25:35;;;;;;;6.05;1.20;;;;;;;20.72;51.61;99863.50;4995350;28;20474;-75
2021/05/11 14:28:00;;;;;;;5.85;1.25;;;;;;;20.71;51.41;99881.63;5067534;28;20385;-76
2021/05/11 14:30:26;;;;;;;4.70;0.75;;;;;;;20.65;51.72;99907.72;5056728;28;20028;-75
2021/05/11 14:32:52;;;;;;;4.80;1.05;;;;;;;20.46;54.51;99917.84;5050722;28;20037;-76
2021/05/11 14:35:18;;;;;;;9.90;1.85;;;;;;;20.18;56.42;99915.31;5034444;28;20063;-76
2021/05/11 14:37:44;;;;;;;8.55;1.60;;;;;;;20.07;56.65;99920.72;5054302;28;20057;-76
2021/05/11 14:40:10;;;;;;;8.07;1.20;;;;;;;19.78;57.53;99916.53;5037286;28;20060;-76
2021/05/11 14:42:36;;;;;;;8.48;1.25;;;;;;;19.40;57.67;99923.72;5050716;28;20021;-76
2021/05/11 14:45:03;;;;;;;7.57;1.25;;;;;;;19.20;58.12;99917.25;5051184;28;20491;-76
2021/05/11 14:47:29;;;;;;;5.40;0.90;;;;;;;19.04;58.78;99924.09;5054717;28;20027;-76
2021/05/11 14:49:54;;;;;;;5.75;1.00;;;;;;;18.77;59.17;99921.00;5067090;28;20092;-76
2021/05/11 14:52:20;;;;;;;3.42;0.80;;;;;;;18.60;59.63;99924.97;5051015;28;20725;-75
2021/05/11 14:54:46;;;;;;;2.97;0.70;;;;;;;18.35;60.13;99927.13;5056019;28;20036;-75
2021/05/11 14:57:12;;;;;;;3.10;0.70;;;;;;;18.20;60.85;99925.94;5048982;28;20029;-75
2021/05/11 14:59:38;;;;;;;3.47;0.50;;;;;;;18.07;62.42;99922.38;5032812;28;20037;-75
2021/05/11 15:02:05;;;;;;;4.47;0.80;;;;;;;17.97;63.46;99917.28;5041711;28;20561;-74
2021/05/11 15:04:31;;;;;;;6.60;0.68;;;;;;;17.96;64.14;99915.63;5026697;28;20021;-75
2021/05/11 15:06:58;;;;;;;4.13;0.63;;;;;;;17.94;66.73;99908.75;5052782;28;20028;-75
2021/05/11 15:09:25;;;;;;;3.13;0.65;;;;;;;18.02;66.13;99916.19;5062352;28;20063;-75
2021/05/11 15:11:51;;;;;;;6.63;1.00;;;;;;;18.11;67.99;99918.84;5047800;28;20113;-75
2021/05/11 15:14:17;;;;;;;5.03;0.80;;;;;;;18.18;66.62;99924.66;5030350;28;20469;-75
2021/05/11 15:16:45;;;;;;;8.00;1.20;;;;;;;18.28;67.10;99921.34;5007455;28;20068;-75
2021/05/11 15:19:11;;;;;;;8.52;1.38;;;;;;;18.35;67.00;99910.28;5052448;28;20037;-75
2021/05/11 15:21:37;;;;;;;5.88;1.35;;;;;;;18.37;66.55;99907.91;5046108;28;20469;-75
2021/05/11 15:24:03;;;;;;;7.07;1.63;;;;;;;18.46;66.00;99917.00;5054179;28;20028;-75
2021/05/11 15:26:32;;;;;;;9.73;1.50;;;;;;;18.51;67.31;99902.66;5050622;28;20033;-75
2021/05/11 15:28:58;;;;;;;10.15;1.50;;;;;;;18.59;67.05;99908.47;5027166;28;20056;-75
2021/05/11 15:31:23;;;;;;;11.52;1.70;;;;;;;18.64;65.71;99897.78;5049777;28;20039;-75
2021/05/11 15:33:49;;;;;;;5.72;1.27;;;;;;;18.66;65.27;99908.66;5036373;28;20436;-75
2021/05/11 15:36:15;;;;;;;11.73;1.92;;;;;;;18.70;64.98;99909.56;5054438;28;20032;-75
2021/05/11 15:38:41;;;;;;;13.15;2.38;;;;;;;18.62;64.17;99919.00;5042519;28;20025;-75
2021/05/11 15:41:07;;;;;;;9.05;2.20;;;;;;;18.61;64.28;99909.75;5035369;28;20065;-75
2021/05/11 15:43:32;;;;;;;12.82;2.33;;;;;;;18.59;65.34;99914.91;5035399;28;20029;-75
2021/05/11 15:45:58;;;;;;;13.57;2.13;;;;;;;18.54;65.97;99915.19;5018375;28;20082;-75
2021/05/11 15:48:25;;;;;;;10.30;2.28;;;;;;;18.51;67.37;99915.91;5028555;28;20040;-75
2021/05/11 15:50:51;;;;;;;10.63;1.95;;;;;;;18.49;67.41;99907.00;5035671;28;20029;-75
2021/05/11 15:53:19;;;;;;;9.52;1.67;;;;;;;18.45;67.49;99892.06;4987443;28;20055;-75
2021/05/11 15:55:46;;;;;;;11.95;2.65;;;;;;;18.36;67.87;99906.28;5033028;28;20038;-75